createdAt,value
2023-05-05T00:02:23.255Z,101369.88
2023-05-05T00:04:51.311Z,101373.53
2023-05-05T00:07:19.296Z,101361.00
2023-05-05T00:09:48.644Z,101357.47
2023-05-05T00:12:16.815Z,101361.91
2023-05-05T00:14:44.751Z,101365.50
2023-05-05T00:17:12.781Z,101358.38
2023-05-05T00:19:41.802Z,101363.75
2023-05-05T00:22:09.732Z,101365.56
2023-05-05T00:24:37.654Z,101356.66
2023-05-05T00:27:06.950Z,101359.44
2023-05-05T00:29:36.039Z,101362.97
2023-05-05T00:32:03.981Z,101359.44
2023-05-05T00:34:31.922Z,101352.44
2023-05-05T00:36:59.860Z,101357.69
2023-05-05T00:39:30.618Z,101361.22
2023-05-05T00:41:59.476Z,101367.53
2023-05-05T00:44:39.284Z,101364.84
2023-05-05T00:47:07.423Z,101359.50
2023-05-05T00:49:36.116Z,101365.81
2023-05-05T00:52:06.693Z,101366.69
2023-05-05T00:54:35.682Z,101360.47
2023-05-05T00:57:04.312Z,101364.09
2023-05-05T00:59:34.772Z,101364.97
2023-05-05T01:02:02.838Z,101354.31
2023-05-05T01:04:30.868Z,101361.41
2023-05-05T01:07:09.713Z,101357.09
2023-05-05T01:09:42.949Z,101360.63
2023-05-05T01:12:21.887Z,101363.31
2023-05-05T01:15:08.615Z,101370.38
2023-05-05T01:17:40.720Z,101359.66
2023-05-05T01:20:17.498Z,101360.63
2023-05-05T01:22:54.902Z,101358.91
2023-05-05T01:25:40.792Z,101362.44
2023-05-05T01:28:20.440Z,101369.63
2023-05-05T01:31:03.501Z,101365.22
2023-05-05T01:33:41.933Z,101366.94
2023-05-05T01:36:14.486Z,101363.47
2023-05-05T01:38:46.322Z,101375.13
2023-05-05T01:41:18.476Z,101384.13
2023-05-05T01:43:50.986Z,101389.38
2023-05-05T01:46:22.901Z,101383.16
2023-05-05T01:48:57.093Z,101376.09
2023-05-05T01:51:28.030Z,101384.13
2023-05-05T01:53:59.896Z,101401.91
2023-05-05T01:56:29.293Z,101407.28
2023-05-05T01:58:58.551Z,101394.84
2023-05-05T02:01:27.651Z,101393.97
2023-05-05T02:03:58.406Z,101393.03
2023-05-05T02:06:28.188Z,101408.22
2023-05-05T02:08:58.966Z,101408.22
2023-05-05T02:11:28.864Z,101409.94
2023-05-05T02:13:57.085Z,101414.44
2023-05-05T02:16:31.273Z,101408.22
2023-05-05T02:19:05.029Z,101402.00
2023-05-05T02:21:33.729Z,101403.72
2023-05-05T02:24:02.340Z,101400.25
2023-05-05T02:26:37.129Z,101393.97
2023-05-05T02:29:08.677Z,101391.28
2023-05-05T02:31:40.779Z,101396.66
2023-05-05T02:34:11.622Z,101394.91
2023-05-05T02:36:42.450Z,101392.16
2023-05-05T02:39:14.616Z,101381.50
2023-05-05T02:41:44.361Z,101368.13
2023-05-05T02:44:14.982Z,101365.53
2023-05-05T02:46:43.993Z,101378.84
2023-05-05T02:49:13.401Z,101380.66
2023-05-05T02:51:41.359Z,101378.94
2023-05-05T02:54:09.606Z,101391.38
2023-05-05T02:56:41.707Z,101385.25
2023-05-05T02:59:16.483Z,101384.28
2023-05-05T03:01:57.890Z,101392.31
2023-05-05T03:04:31.131Z,101402.06
2023-05-05T03:07:08.857Z,101401.22
2023-05-05T03:09:41.094Z,101400.44
2023-05-05T03:12:11.001Z,101403.97
2023-05-05T03:14:42.980Z,101403.97
2023-05-05T03:17:12.499Z,101402.25
2023-05-05T03:19:43.495Z,101403.13
2023-05-05T03:22:11.873Z,101405.81
2023-05-05T03:24:39.768Z,101404.03
2023-05-05T03:27:07.791Z,101411.22
2023-05-05T03:29:38.292Z,101401.47
2023-05-05T03:32:07.314Z,101405.00
2023-05-05T03:34:37.348Z,101407.78
2023-05-05T03:37:06.680Z,101422.88
2023-05-05T03:39:34.634Z,101421.16
2023-05-05T03:42:02.566Z,101419.44
2023-05-05T03:44:30.562Z,101414.94
2023-05-05T03:46:58.630Z,101419.44
2023-05-05T03:49:27.569Z,101420.38
2023-05-05T03:51:55.566Z,101418.56
2023-05-05T03:54:24.876Z,101421.22
2023-05-05T03:56:52.862Z,101423.03
2023-05-05T03:59:20.795Z,101427.53
2023-05-05T04:01:49.952Z,101439.09
2023-05-05T04:04:18.031Z,101454.31
2023-05-05T04:06:46.026Z,101459.66
2023-05-05T04:09:14.559Z,101456.13
2023-05-05T04:11:44.099Z,101457.09
2023-05-05T04:14:12.651Z,101469.53
2023-05-05T04:16:40.924Z,101474.97
2023-05-05T04:19:09.563Z,101472.28
2023-05-05T04:21:37.637Z,101478.56
2023-05-05T04:24:08.476Z,101482.09
2023-05-05T04:26:36.582Z,101480.31
2023-05-05T04:29:05.915Z,101483.88
2023-05-05T04:31:34.036Z,101487.47
2023-05-05T04:34:02.429Z,101490.13
2023-05-05T04:36:30.371Z,101492.81
2023-05-05T04:38:58.364Z,101498.16
2023-05-05T04:41:30.101Z,101507.16
2023-05-05T04:43:58.287Z,101500.94
2023-05-05T04:46:36.532Z,101504.47
2023-05-05T04:49:16.616Z,101504.47
2023-05-05T04:51:46.543Z,101516.91
2023-05-05T04:54:14.774Z,101512.50
2023-05-05T04:56:42.759Z,101510.78
2023-05-05T04:59:10.731Z,101518.81
2023-05-05T05:01:40.083Z,101517.00
2023-05-05T05:04:08.112Z,101520.63
2023-05-05T05:06:36.140Z,101522.44
2023-05-05T05:09:04.263Z,101526.84
2023-05-05T05:11:32.378Z,101520.63
2023-05-05T05:14:00.408Z,101522.34
2023-05-05T05:16:28.475Z,101521.50
2023-05-05T05:18:58.650Z,101519.78
2023-05-05T05:21:27.633Z,101527.72
2023-05-05T05:23:55.589Z,101531.25
2023-05-05T05:26:23.660Z,101544.66
2023-05-05T05:28:51.628Z,101529.53
2023-05-05T05:31:19.568Z,101534.78
2023-05-05T05:33:51.091Z,101530.41
2023-05-05T05:36:20.388Z,101534.75
2023-05-05T05:38:48.317Z,101539.13
2023-05-05T05:41:16.332Z,101540.94
2023-05-05T05:43:44.242Z,101547.06
2023-05-05T05:46:12.612Z,101539.03
2023-05-05T05:48:40.800Z,101543.53
2023-05-05T05:51:11.510Z,101535.44
2023-05-05T05:53:40.815Z,101536.31
2023-05-05T05:56:09.866Z,101540.72
2023-05-05T05:58:37.776Z,101536.31
2023-05-05T06:01:05.954Z,101538.84
2023-05-05T06:03:36.447Z,101535.19
2023-05-05T06:06:07.529Z,101524.56
2023-05-05T06:08:35.501Z,101532.53
2023-05-05T06:11:04.862Z,101537.03
2023-05-05T06:13:32.894Z,101533.38
2023-05-05T06:16:01.103Z,101542.28
2023-05-05T06:18:29.350Z,101536.94
2023-05-05T06:20:57.264Z,101552.84
2023-05-05T06:23:25.470Z,101553.59
2023-05-05T06:25:54.632Z,101545.50
2023-05-05T06:28:23.927Z,101551.72
2023-05-05T06:30:51.905Z,101555.28
2023-05-05T06:33:22.896Z,101553.41
2023-05-05T06:35:52.857Z,101560.63
2023-05-05T06:38:20.772Z,101562.28
2023-05-05T06:40:49.500Z,101563.16
2023-05-05T06:43:18.007Z,101555.03
2023-05-05T06:45:50.139Z,101556.75
2023-05-05T06:48:18.129Z,101557.72
2023-05-05T06:50:46.306Z,101566.53
2023-05-05T06:53:14.304Z,101563.00
2023-05-05T06:55:45.584Z,101559.38
2023-05-05T06:58:16.206Z,101560.13
2023-05-05T07:00:44.313Z,101563.78
2023-05-05T07:03:13.754Z,101568.13
2023-05-05T07:05:41.896Z,101559.97
2023-05-05T07:08:11.304Z,101569.84
2023-05-05T07:10:39.305Z,101585.03
2023-05-05T07:13:08.011Z,101587.72
2023-05-05T07:15:36.192Z,101585.91
2023-05-05T07:18:04.266Z,101596.63
2023-05-05T07:20:33.665Z,101596.63
2023-05-05T07:23:01.787Z,101591.28
2023-05-05T07:25:29.910Z,101596.63
2023-05-05T07:27:58.109Z,101600.25
2023-05-05T07:30:26.647Z,101607.34
2023-05-05T07:32:55.083Z,101601.13
2023-05-05T07:35:23.394Z,101601.97
2023-05-05T07:37:52.672Z,101594.91
2023-05-05T07:40:20.669Z,101602.94
2023-05-05T07:42:48.690Z,101591.34
2023-05-05T07:45:16.706Z,101601.13
2023-05-05T07:47:44.639Z,101601.03
2023-05-05T07:50:12.651Z,101602.84
2023-05-05T07:55:12.955Z,101601.84
2023-05-05T07:57:40.980Z,101604.50
2023-05-05T08:00:13.376Z,101599.16
2023-05-05T08:02:41.543Z,101605.47
2023-05-05T08:05:10.148Z,101605.47
2023-05-05T08:07:41.322Z,101605.47
2023-05-05T08:10:11.410Z,101600.09
2023-05-05T08:12:40.968Z,101599.16
2023-05-05T08:15:09.800Z,101606.22
2023-05-05T08:17:48.650Z,101591.97
2023-05-05T08:20:16.999Z,101606.19
2023-05-05T08:22:45.265Z,101603.56
2023-05-05T08:25:13.966Z,101611.53
2023-05-05T08:27:44.168Z,101610.63
2023-05-05T08:30:12.887Z,101606.22
2023-05-05T08:32:41.144Z,101608.91
2023-05-05T08:35:09.966Z,101608.06
2023-05-05T08:37:38.259Z,101608.06
2023-05-05T08:40:06.971Z,101605.38
2023-05-05T08:42:37.761Z,101608.06
2023-05-05T08:45:11.117Z,101607.19
2023-05-05T08:47:43.390Z,101606.38
2023-05-05T08:50:12.500Z,101611.75
2023-05-05T08:52:43.790Z,101611.75
2023-05-05T08:55:16.484Z,101614.44
2023-05-05T08:57:47.118Z,101625.13
2023-05-05T09:00:19.934Z,101620.72
2023-05-05T09:02:48.675Z,101618.91
2023-05-05T09:05:18.710Z,101610.81
2023-05-05T09:07:47.641Z,101609.06
2023-05-05T09:10:15.900Z,101613.50
2023-05-05T09:12:44.189Z,101601.84
2023-05-05T09:15:13.559Z,101612.53
2023-05-05T09:17:43.363Z,101608.06
2023-05-05T09:20:12.838Z,101613.41
2023-05-05T09:22:45.693Z,101618.06
2023-05-05T09:25:14.951Z,101623.41
2023-05-05T09:27:45.909Z,101628.69
2023-05-05T09:30:16.578Z,101627.75
2023-05-05T09:32:47.589Z,101627.66
2023-05-05T09:35:16.541Z,101622.31
2023-05-05T09:37:44.614Z,101623.13
2023-05-05T09:40:15.073Z,101628.47
2023-05-05T09:42:43.035Z,101629.28
2023-05-05T09:45:27.479Z,101636.44
2023-05-05T09:48:00.291Z,101625.63
2023-05-05T09:50:30.701Z,101627.41
2023-05-05T09:53:01.040Z,101618.50
2023-05-05T09:55:30.990Z,101621.94
2023-05-05T09:58:17.738Z,101626.44
2023-05-05T10:00:46.013Z,101617.53
2023-05-05T10:03:15.340Z,101620.13
2023-05-05T10:05:50.525Z,101617.44
2023-05-05T10:08:19.697Z,101616.59
2023-05-05T10:10:51.566Z,101613.81
2023-05-05T10:13:21.562Z,101608.44
2023-05-05T10:15:51.863Z,101607.59
2023-05-05T10:18:24.509Z,101602.31
2023-05-05T10:20:57.521Z,101608.44
2023-05-05T10:23:29.946Z,101605.78
2023-05-05T10:26:03.250Z,101604.00
2023-05-05T10:28:35.065Z,101602.22
2023-05-05T10:31:12.863Z,101598.69
2023-05-05T10:33:52.756Z,101593.28
2023-05-05T10:36:22.136Z,101588.78
2023-05-05T10:38:55.231Z,101591.50
2023-05-05T10:41:23.975Z,101581.66
2023-05-05T10:43:53.858Z,101584.44
2023-05-05T10:46:22.340Z,101587.03
2023-05-05T10:48:58.646Z,101570.94
2023-05-05T10:51:39.855Z,101578.06
2023-05-05T10:54:12.486Z,101574.44
2023-05-05T10:56:43.231Z,101574.34
2023-05-05T10:59:50.503Z,101577.91
2023-05-05T11:02:23.616Z,101573.31
2023-05-05T11:05:15.202Z,101575.03
2023-05-05T11:07:49.122Z,101566.06
2023-05-05T11:10:22.315Z,101567.69
2023-05-05T11:13:18.887Z,101573.75
2023-05-05T11:15:52.123Z,101571.88
2023-05-05T11:18:35.937Z,101565.41
2023-05-05T11:21:19.211Z,101565.22
2023-05-05T11:23:52.430Z,101558.06
2023-05-05T11:26:50.239Z,101557.97
2023-05-05T11:29:18.351Z,101548.22
2023-05-05T11:31:47.840Z,101552.72
2023-05-05T11:34:27.083Z,101550.88
2023-05-05T11:36:59.214Z,101562.53
2023-05-05T11:39:44.333Z,101566.97
2023-05-05T11:42:26.039Z,101575.00
2023-05-05T11:44:55.168Z,101574.16
2023-05-05T11:47:33.450Z,101583.91
2023-05-05T11:50:18.538Z,101587.47
2023-05-05T11:52:50.620Z,101611.59
2023-05-05T11:55:24.363Z,101633.97
2023-05-05T11:57:52.399Z,101647.44
2023-05-05T12:00:20.927Z,101652.81
2023-05-05T12:02:57.643Z,101673.38
2023-05-05T12:05:25.895Z,101668.03
2023-05-05T12:07:59.606Z,101677.97
2023-05-05T12:10:30.451Z,101675.31
2023-05-05T12:12:58.456Z,101665.50
2023-05-05T12:15:30.822Z,101667.31
2023-05-05T12:18:03.024Z,101671.81
2023-05-05T12:20:33.429Z,101675.44
2023-05-05T12:23:04.628Z,101682.63
2023-05-05T12:25:36.862Z,101685.38
2023-05-05T12:28:06.653Z,101681.78
2023-05-05T12:30:34.901Z,101685.56
2023-05-05T12:33:03.942Z,101689.97
2023-05-05T12:35:32.846Z,101686.41
2023-05-05T12:38:00.886Z,101692.69
2023-05-05T12:40:50.012Z,101691.84
2023-05-05T12:43:31.250Z,101695.47
2023-05-05T12:46:04.429Z,101687.44
2023-05-05T12:48:32.657Z,101683.88
2023-05-05T12:51:17.868Z,101685.72
2023-05-05T12:53:46.551Z,101676.81
2023-05-05T12:56:38.344Z,101666.94
2023-05-05T12:59:08.038Z,101666.94
2023-05-05T13:01:36.571Z,101668.75
2023-05-05T13:04:12.792Z,101660.78
2023-05-05T13:06:42.588Z,101675.03
2023-05-05T13:09:23.195Z,101659.94
2023-05-05T13:11:52.699Z,101660.00
2023-05-05T13:14:20.663Z,101662.59
2023-05-05T13:16:48.754Z,101657.34
2023-05-05T13:19:16.952Z,101654.66
2023-05-05T13:21:44.877Z,101657.41
2023-05-05T13:24:26.031Z,101647.56
2023-05-05T13:27:00.799Z,101658.28
2023-05-05T13:29:31.432Z,101653.84
2023-05-05T13:32:00.271Z,101647.63
2023-05-05T13:34:28.283Z,101666.38
2023-05-05T13:36:56.242Z,101676.25
2023-05-05T13:39:24.262Z,101663.72
2023-05-05T13:41:52.226Z,101662.75
2023-05-05T13:44:22.023Z,101672.59
2023-05-05T13:46:50.059Z,101662.84
2023-05-05T13:49:18.370Z,101662.22
2023-05-05T13:51:47.055Z,101666.63
2023-05-05T13:54:15.242Z,101660.47
2023-05-05T13:56:43.924Z,101650.72
2023-05-05T13:59:14.616Z,101654.25
2023-05-05T14:01:43.980Z,101648.81
2023-05-05T14:04:11.977Z,101657.72
2023-05-05T14:06:39.959Z,101654.09
2023-05-05T14:09:08.228Z,101642.50
2023-05-05T14:11:36.290Z,101651.41
2023-05-05T14:14:06.953Z,101646.88
2023-05-05T14:16:35.102Z,101645.03
2023-05-05T14:19:04.554Z,101647.63
2023-05-05T14:21:33.005Z,101643.13
2023-05-05T14:24:01.038Z,101648.50
2023-05-05T14:26:31.730Z,101647.63
2023-05-05T14:28:59.713Z,101664.50
2023-05-05T14:31:28.615Z,101669.00
2023-05-05T14:33:56.677Z,101669.00
2023-05-05T14:36:26.863Z,101665.44
2023-05-05T14:38:54.888Z,101669.00
2023-05-05T14:41:22.851Z,101658.28
2023-05-05T14:43:50.832Z,101659.16
2023-05-05T14:46:19.022Z,101664.50
2023-05-05T14:48:47.469Z,101655.53
2023-05-05T14:51:18.204Z,101653.78
2023-05-05T14:53:47.705Z,101654.66
2023-05-05T14:56:15.805Z,101652.84
2023-05-05T14:58:43.970Z,101645.66
2023-05-05T15:01:12.009Z,101646.53
2023-05-05T15:03:40.530Z,101642.97
2023-05-05T15:06:09.010Z,101634.94
2023-05-05T15:08:38.937Z,101636.66
2023-05-05T15:11:08.600Z,101627.78
2023-05-05T15:13:38.695Z,101616.09
2023-05-05T15:16:07.479Z,101621.44
2023-05-05T15:18:35.691Z,101616.09
2023-05-05T15:21:03.655Z,101610.66
2023-05-05T15:23:31.593Z,101606.19
2023-05-05T15:25:59.526Z,101598.13
2023-05-05T15:28:28.852Z,101599.97
2023-05-05T15:30:56.853Z,101599.84
2023-05-05T15:33:24.764Z,101600.72
2023-05-05T15:35:52.712Z,101590.00
2023-05-05T15:38:20.658Z,101594.44
2023-05-05T15:40:50.249Z,101602.47
2023-05-05T15:43:18.343Z,101600.91
2023-05-05T15:45:47.773Z,101601.78
2023-05-05T15:48:15.766Z,101604.34
2023-05-05T15:50:43.688Z,101603.41
2023-05-05T15:53:11.623Z,101597.13
2023-05-05T15:55:40.290Z,101596.06
2023-05-05T15:58:08.384Z,101597.81
2023-05-05T16:00:36.324Z,101582.50
2023-05-05T16:03:05.822Z,101582.50
2023-05-05T16:05:36.691Z,101578.97
2023-05-05T16:08:09.527Z,101579.75
2023-05-05T16:10:37.661Z,101574.38
2023-05-05T16:13:05.651Z,101573.44
2023-05-05T16:15:33.601Z,101580.53
2023-05-05T16:18:05.413Z,101592.03
2023-05-05T16:20:33.592Z,101586.59
2023-05-05T16:23:01.568Z,101578.63
2023-05-05T16:25:29.491Z,101580.38
2023-05-05T16:27:57.609Z,101580.38
2023-05-05T16:30:25.574Z,101582.25
2023-05-05T16:32:54.587Z,101580.38
2023-05-05T16:35:24.356Z,101578.63
2023-05-05T16:37:52.573Z,101577.75
2023-05-05T16:40:20.499Z,101579.56
2023-05-05T16:42:48.453Z,101579.56
2023-05-05T16:45:16.520Z,101577.94
2023-05-05T16:47:44.570Z,101575.19
2023-05-05T16:50:12.666Z,101573.34
2023-05-05T16:52:42.013Z,101568.84
2023-05-05T16:55:10.763Z,101567.13
2023-05-05T16:57:38.993Z,101557.28
2023-05-05T17:00:09.249Z,101571.53
2023-05-05T17:02:37.232Z,101565.31
2023-05-05T17:05:05.881Z,101566.19
2023-05-05T17:07:33.898Z,101568.84
2023-05-05T17:10:03.347Z,101567.03
2023-05-05T17:12:31.279Z,101565.88
2023-05-05T17:14:59.718Z,101571.66
2023-05-05T17:17:27.791Z,101568.19
2023-05-05T17:19:55.891Z,101571.66
2023-05-05T17:22:23.850Z,101567.34
2023-05-05T17:24:51.995Z,101569.31
2023-05-05T17:27:21.411Z,101566.00
2023-05-05T17:29:49.394Z,101565.78
2023-05-05T17:32:17.281Z,101578.97
2023-05-05T17:34:45.300Z,101577.00
2023-05-05T17:37:13.227Z,101577.09
2023-05-05T17:39:41.133Z,101584.91
2023-05-05T17:42:09.063Z,101581.19
2023-05-05T17:44:38.364Z,101579.28
2023-05-05T17:47:07.793Z,101570.31
2023-05-05T17:49:35.787Z,101579.94
2023-05-05T17:52:03.756Z,101578.97
2023-05-05T17:54:31.761Z,101592.28
2023-05-05T17:57:00.170Z,101590.41
2023-05-05T17:59:28.114Z,101600.16
2023-05-05T18:01:57.382Z,101604.56
2023-05-05T18:04:27.343Z,101594.69
2023-05-05T18:06:56.094Z,101591.09
2023-05-05T18:09:24.357Z,101598.19
2023-05-05T18:11:53.553Z,101612.44
2023-05-05T18:14:22.503Z,101610.63
2023-05-05T18:16:52.311Z,101598.19
2023-05-05T18:19:24.348Z,101610.47
2023-05-05T18:21:54.341Z,101599.75
2023-05-05T18:24:22.450Z,101597.06
2023-05-05T18:26:52.407Z,101596.06
2023-05-05T18:29:21.621Z,101602.19
2023-05-05T18:31:51.826Z,101599.59
2023-05-05T18:34:22.280Z,101603.94
2023-05-05T18:36:54.246Z,101601.16
2023-05-05T18:39:22.272Z,101602.03
2023-05-05T18:41:50.192Z,101606.53
2023-05-05T18:44:19.252Z,101622.59
2023-05-05T18:46:47.891Z,101610.16
2023-05-05T18:49:16.291Z,101616.38
2023-05-05T18:51:45.705Z,101610.94
2023-05-05T18:54:13.669Z,101614.56
2023-05-05T18:56:42.313Z,101612.75
2023-05-05T18:59:10.292Z,101614.47
2023-05-05T19:01:38.325Z,101630.56
2023-05-05T19:04:15.548Z,101627.88
2023-05-05T19:06:52.628Z,101620.69
2023-05-05T19:09:20.763Z,101614.41
2023-05-05T19:11:48.701Z,101623.31
2023-05-05T19:14:17.732Z,101627.81
2023-05-05T19:16:45.901Z,101619.75
2023-05-05T19:19:13.927Z,101626.94
2023-05-05T19:21:42.096Z,101634.91
2023-05-05T19:24:11.642Z,101634.03
2023-05-05T19:26:39.564Z,101644.75
2023-05-05T19:29:07.471Z,101647.44
2023-05-05T19:31:35.478Z,101649.25
2023-05-05T19:34:05.353Z,101657.22
2023-05-05T19:36:33.610Z,101644.81
2023-05-05T19:39:05.774Z,101651.13
2023-05-05T19:41:35.622Z,101650.28
2023-05-05T19:44:03.832Z,101657.38
2023-05-05T19:46:31.948Z,101654.69
2023-05-05T19:48:59.937Z,101647.59
2023-05-05T19:51:28.171Z,101653.91
2023-05-05T19:53:56.131Z,101660.13
2023-05-05T19:56:24.148Z,101656.59
2023-05-05T19:58:58.993Z,101659.28
2023-05-05T20:01:27.954Z,101658.41
2023-05-05T20:03:57.506Z,101651.28
2023-05-05T20:06:25.622Z,101655.72
2023-05-05T20:08:54.750Z,101657.56
2023-05-05T20:11:23.039Z,101666.47
2023-05-05T20:13:51.690Z,101656.66
2023-05-05T20:16:21.709Z,101664.63
2023-05-05T20:18:52.380Z,101658.41
2023-05-05T20:21:21.226Z,101656.66
2023-05-05T20:23:51.993Z,101656.66
2023-05-05T20:26:19.946Z,101662.00
2023-05-05T20:28:48.039Z,101656.66
2023-05-05T20:31:16.153Z,101654.06
2023-05-05T20:33:45.774Z,101656.66
2023-05-05T20:36:13.756Z,101650.44
2023-05-05T20:38:41.708Z,101653.97
2023-05-05T20:41:09.681Z,101655.78
2023-05-05T20:43:37.921Z,101653.13
2023-05-05T20:46:05.903Z,101655.78
2023-05-05T20:48:33.900Z,101659.34
2023-05-05T20:51:05.979Z,101662.97
2023-05-05T20:53:34.117Z,101662.97
2023-05-05T20:56:02.072Z,101659.44
2023-05-05T20:58:30.658Z,101666.50
2023-05-05T21:00:59.020Z,101661.25
2023-05-05T21:03:27.070Z,101662.13
2023-05-05T21:05:55.292Z,101654.16
2023-05-05T21:08:24.606Z,101657.72
2023-05-05T21:10:52.509Z,101655.94
2023-05-05T21:13:20.511Z,101650.59
2023-05-05T21:15:51.292Z,101652.41
2023-05-05T21:18:21.781Z,101654.16
2023-05-05T21:20:49.736Z,101654.22
2023-05-05T21:23:17.592Z,101654.22
2023-05-05T21:25:48.957Z,101654.22
2023-05-05T21:28:16.936Z,101657.75
2023-05-05T21:30:46.647Z,101652.50
2023-05-05T21:33:18.630Z,101654.38
2023-05-05T21:35:49.040Z,101648.25
2023-05-05T21:38:16.976Z,101648.31
2023-05-05T21:40:45.022Z,101653.66
2023-05-05T21:43:14.449Z,101654.56
2023-05-05T21:45:42.360Z,101655.50
2023-05-05T21:48:10.326Z,101659.84
2023-05-05T21:50:38.280Z,101658.97
2023-05-05T21:53:06.216Z,101657.16
2023-05-05T21:55:34.134Z,101656.28
2023-05-05T21:58:02.042Z,101650.06
2023-05-05T22:00:31.310Z,101649.22
2023-05-05T22:02:59.395Z,101644.72
2023-05-05T22:05:27.416Z,101640.28
2023-05-05T22:07:55.372Z,101640.38
2023-05-05T22:10:23.375Z,101635.09
2023-05-05T22:12:51.381Z,101636.91
2023-05-05T22:15:20.236Z,101640.47
2023-05-05T22:17:49.558Z,101641.38
2023-05-05T22:20:17.818Z,101642.28
2023-05-05T22:22:46.048Z,101646.75
2023-05-05T22:25:14.070Z,101652.09
2023-05-05T22:27:42.040Z,101651.34
2023-05-05T22:30:10.932Z,101648.66
2023-05-05T22:32:38.881Z,101645.09
2023-05-05T22:35:09.296Z,101649.66
2023-05-05T22:37:37.365Z,101641.56
2023-05-05T22:40:06.293Z,101647.84
2023-05-05T22:42:37.518Z,101645.16
2023-05-05T22:45:05.937Z,101638.19
2023-05-05T22:47:33.918Z,101646.22
2023-05-05T22:50:01.913Z,101646.22
2023-05-05T22:52:31.157Z,101645.34
2023-05-05T22:54:59.073Z,101648.03
2023-05-05T22:57:26.947Z,101641.78
2023-05-05T22:59:54.858Z,101647.22
2023-05-05T23:02:22.857Z,101647.22
2023-05-05T23:04:51.217Z,101641.88
2023-05-05T23:07:19.454Z,101637.47
2023-05-05T23:09:49.548Z,101634.78
2023-05-05T23:12:18.195Z,101634.78
2023-05-05T23:14:46.122Z,101625.09
2023-05-05T23:17:14.216Z,101632.16
2023-05-05T23:19:42.167Z,101631.31
2023-05-05T23:22:10.065Z,101633.13
2023-05-05T23:24:37.991Z,101634.94
2023-05-05T23:27:08.981Z,101632.25
2023-05-05T23:29:36.894Z,101633.22
2023-05-05T23:32:04.832Z,101633.22
2023-05-05T23:34:32.757Z,101631.50
2023-05-05T23:37:00.764Z,101632.41
2023-05-05T23:39:28.793Z,101624.38
2023-05-05T23:41:57.575Z,101624.38
2023-05-05T23:44:29.664Z,101620.06
2023-05-05T23:46:57.591Z,101625.34
2023-05-05T23:49:26.383Z,101617.28
2023-05-05T23:51:54.326Z,101615.56
2023-05-05T23:54:22.385Z,101617.28
2023-05-05T23:56:50.300Z,101615.56
2023-05-05T23:59:18.225Z,101615.56
